Time;durP1;ratioP1;P1;durP2;ratioP2;P2;SDS_P1;SDS_P2;PMS_P1;PMS_P2;Temp;Humidity;BMP_temperature;BMP_pressure;BME280_temperature;BME280_humidity;BME280_pressure;Samples;Min_cycle;Max_cycle;Signal;HPM_P1;HPM_P2
2023/12/15 00:01:37;;;;;;;17.90;12.50;;;3.40;99.90;;;;;;4994773;28;20476;-61
2023/12/15 00:04:05;;;;;;;19.87;12.50;;;3.40;99.90;;;;;;4996804;28;20898;-61
2023/12/15 00:06:33;;;;;;;16.70;12.60;;;3.40;99.90;;;;;;4995086;28;20664;-60
2023/12/15 00:09:02;;;;;;;17.23;12.13;;;3.40;99.90;;;;;;5001001;28;20969;-61
2023/12/15 00:11:31;;;;;;;18.33;12.30;;;3.40;99.90;;;;;;5000325;28;20464;-59
2023/12/15 00:13:59;;;;;;;18.30;12.97;;;3.40;99.90;;;;;;4997508;28;20583;-60
2023/12/15 00:16:27;;;;;;;17.60;12.10;;;3.40;99.90;;;;;;4995192;28;20490;-61
2023/12/15 00:18:55;;;;;;;18.60;12.50;;;3.40;99.90;;;;;;4995414;28;20475;-61
2023/12/15 00:21:24;;;;;;;18.33;12.87;;;3.40;99.90;;;;;;4992093;28;21193;-61
2023/12/15 00:23:52;;;;;;;20.93;13.80;;;3.40;99.90;;;;;;4997889;28;20480;-61
2023/12/15 00:26:20;;;;;;;18.73;12.27;;;3.40;99.90;;;;;;4999682;28;20527;-60
2023/12/15 00:28:49;;;;;;;17.40;12.70;;;3.40;99.90;;;;;;4997548;28;20591;-60
2023/12/15 00:31:18;;;;;;;20.00;12.90;;;3.50;99.90;;;;;;4993673;28;20479;-62
2023/12/15 00:33:46;;;;;;;19.10;12.87;;;3.50;99.90;;;;;;5002178;28;20476;-60
2023/12/15 00:36:14;;;;;;;19.20;12.90;;;3.50;99.90;;;;;;4994723;28;20528;-60
2023/12/15 00:38:42;;;;;;;19.60;13.20;;;3.50;99.90;;;;;;5004998;28;20857;-60
2023/12/15 00:41:10;;;;;;;18.23;12.23;;;3.50;99.90;;;;;;5003721;28;20484;-60
2023/12/15 00:43:38;;;;;;;18.93;12.77;;;3.50;99.90;;;;;;5003977;28;21062;-61
2023/12/15 00:46:07;;;;;;;19.37;12.87;;;3.50;99.90;;;;;;5003983;28;20528;-61
2023/12/15 00:48:35;;;;;;;22.73;13.60;;;3.60;99.90;;;;;;5002870;28;20500;-60
2023/12/15 00:51:03;;;;;;;22.20;13.90;;;3.60;99.90;;;;;;4999412;28;20551;-60
2023/12/15 00:53:32;;;;;;;20.60;12.80;;;3.60;99.90;;;;;;5002598;28;20522;-60
2023/12/15 00:56:01;;;;;;;17.27;11.93;;;3.60;99.90;;;;;;5004792;28;20563;-61
2023/12/15 00:58:29;;;;;;;18.60;12.80;;;3.70;99.90;;;;;;5005475;28;20489;-60
2023/12/15 01:00:57;;;;;;;19.20;12.70;;;3.60;99.90;;;;;;4994986;28;20475;-61
2023/12/15 01:03:26;;;;;;;21.07;14.70;;;3.70;99.90;;;;;;5003069;28;20996;-61
2023/12/15 01:05:54;;;;;;;20.00;13.27;;;3.70;99.90;;;;;;5005471;28;20500;-60
2023/12/15 01:08:23;;;;;;;22.90;13.33;;;3.70;99.90;;;;;;4995543;28;20973;-60
2023/12/15 01:10:51;;;;;;;20.60;13.07;;;3.70;99.90;;;;;;4997300;28;20535;-61
2023/12/15 01:13:19;;;;;;;20.47;12.97;;;3.70;99.90;;;;;;4998101;28;20471;-60
2023/12/15 01:15:47;;;;;;;19.50;12.93;;;3.70;99.90;;;;;;4997874;28;21067;-60
2023/12/15 01:18:15;;;;;;;21.47;13.90;;;3.80;99.90;;;;;;4990592;28;20528;-59
2023/12/15 01:20:45;;;;;;;21.17;13.70;;;3.80;99.90;;;;;;4998737;28;20895;-61
2023/12/15 01:23:12;;;;;;;20.37;13.63;;;3.80;99.90;;;;;;4994478;28;20483;-60
2023/12/15 01:25:40;;;;;;;20.90;14.90;;;3.80;99.90;;;;;;4997783;28;20496;-61
2023/12/15 01:28:08;;;;;;;19.00;12.87;;;3.80;99.90;;;;;;4991753;28;20567;-61
2023/12/15 01:30:36;;;;;;;22.53;14.20;;;3.80;99.90;;;;;;4993514;28;20931;-60
2023/12/15 01:33:05;;;;;;;23.40;14.33;;;3.80;99.90;;;;;;4994310;28;21190;-61
2023/12/15 01:35:33;;;;;;;20.90;14.00;;;3.80;99.90;;;;;;4991673;28;20503;-58
2023/12/15 01:38:02;;;;;;;18.20;12.43;;;3.80;99.90;;;;;;4996667;28;20469;-60
2023/12/15 01:40:30;;;;;;;19.97;13.47;;;3.80;99.90;;;;;;5003720;28;20960;-61
2023/12/15 01:42:59;;;;;;;19.93;12.57;;;3.90;99.90;;;;;;5003524;28;20906;-60
2023/12/15 01:45:27;;;;;;;21.17;13.80;;;3.90;99.90;;;;;;5001502;28;20579;-60
2023/12/15 01:47:55;;;;;;;20.20;13.37;;;3.90;99.90;;;;;;5003860;28;20969;-61
2023/12/15 01:50:24;;;;;;;22.43;13.17;;;3.90;99.90;;;;;;5001941;28;20473;-61
2023/12/15 01:52:52;;;;;;;21.00;13.33;;;3.90;99.90;;;;;;5003627;28;20530;-61
2023/12/15 01:55:21;;;;;;;18.80;12.10;;;3.90;99.90;;;;;;5001231;28;20981;-61
2023/12/15 01:57:49;;;;;;;20.67;13.83;;;3.90;99.90;;;;;;5003422;28;20555;-61
2023/12/15 02:00:17;;;;;;;23.40;14.03;;;3.90;99.90;;;;;;5002614;28;20479;-61
2023/12/15 02:02:46;;;;;;;22.80;13.60;;;3.90;99.90;;;;;;5002450;28;20559;-61
2023/12/15 02:05:14;;;;;;;21.40;14.33;;;3.90;99.90;;;;;;5001620;28;20579;-61
2023/12/15 02:07:42;;;;;;;22.70;13.30;;;4.00;99.90;;;;;;5005550;28;20499;-61
2023/12/15 02:10:10;;;;;;;18.57;12.83;;;4.00;99.90;;;;;;4996959;28;20563;-60
2023/12/15 02:12:39;;;;;;;17.60;11.90;;;4.00;99.90;;;;;;5000369;28;20500;-60
2023/12/15 02:15:10;;;;;;;19.33;13.87;;;4.00;99.90;;;;;;4999408;28;20606;-60
2023/12/15 02:17:38;;;;;;;17.40;12.70;;;4.00;99.90;;;;;;4999387;28;20507;-61
2023/12/15 02:20:08;;;;;;;16.67;12.10;;;4.00;99.90;;;;;;5001220;28;20488;-61
2023/12/15 02:22:37;;;;;;;18.20;12.37;;;4.00;99.90;;;;;;5001278;28;20472;-61
2023/12/15 02:25:06;;;;;;;17.30;11.77;;;4.00;99.90;;;;;;5004060;28;20495;-61
2023/12/15 02:27:34;;;;;;;18.13;11.90;;;4.10;99.90;;;;;;5000207;28;20596;-61
2023/12/15 02:30:03;;;;;;;20.80;13.20;;;4.00;99.90;;;;;;5003358;28;20477;-61
2023/12/15 02:32:31;;;;;;;20.73;13.20;;;4.10;99.90;;;;;;5002446;28;20464;-60
2023/12/15 02:34:59;;;;;;;20.97;12.50;;;4.10;99.90;;;;;;5000639;28;20887;-60
2023/12/15 02:37:28;;;;;;;15.10;10.90;;;4.10;99.90;;;;;;4997918;28;20474;-61
2023/12/15 02:39:57;;;;;;;18.57;11.03;;;4.10;99.90;;;;;;5004973;28;20476;-61
2023/12/15 02:42:25;;;;;;;16.37;11.53;;;4.10;99.90;;;;;;5006742;28;20961;-61
2023/12/15 02:44:53;;;;;;;16.30;11.17;;;4.10;99.90;;;;;;5006476;28;20584;-61
2023/12/15 02:47:21;;;;;;;18.20;12.17;;;4.20;99.90;;;;;;5008305;28;20575;-61
2023/12/15 02:49:49;;;;;;;15.20;11.00;;;4.10;99.90;;;;;;5006886;28;20559;-61
2023/12/15 02:52:17;;;;;;;15.10;10.67;;;4.10;99.90;;;;;;5002926;28;20472;-61
2023/12/15 02:54:45;;;;;;;18.50;12.27;;;4.10;99.90;;;;;;5004999;28;20499;-61
2023/12/15 02:57:15;;;;;;;15.10;10.80;;;4.10;99.90;;;;;;5008389;28;20552;-61
2023/12/15 02:59:43;;;;;;;16.63;12.23;;;4.10;99.90;;;;;;5007596;28;20615;-61
2023/12/15 03:02:11;;;;;;;18.50;12.60;;;4.20;99.90;;;;;;5007924;28;20922;-61
2023/12/15 03:04:39;;;;;;;16.50;11.83;;;4.20;99.90;;;;;;5007133;28;20476;-61
2023/12/15 03:07:07;;;;;;;18.50;12.20;;;4.20;99.90;;;;;;5007953;28;20488;-61
2023/12/15 03:09:35;;;;;;;17.33;12.53;;;4.20;99.90;;;;;;5004358;28;20620;-60
2023/12/15 03:12:03;;;;;;;19.10;12.63;;;4.20;99.90;;;;;;4994203;28;20475;-61
2023/12/15 03:14:32;;;;;;;17.63;11.90;;;4.30;99.90;;;;;;5003849;28;20484;-61
2023/12/15 03:17:00;;;;;;;19.60;11.83;;;4.30;99.90;;;;;;4990104;28;20840;-60
2023/12/15 03:19:29;;;;;;;18.90;12.60;;;4.30;99.90;;;;;;4999013;28;20480;-60
2023/12/15 03:21:57;;;;;;;17.93;11.83;;;4.30;99.90;;;;;;4994456;28;20542;-61
2023/12/15 03:24:25;;;;;;;19.00;11.97;;;4.20;99.90;;;;;;5003953;28;20539;-60
2023/12/15 03:26:53;;;;;;;16.57;12.40;;;4.30;99.90;;;;;;4998258;28;20938;-61
2023/12/15 03:29:21;;;;;;;16.20;12.07;;;4.30;99.90;;;;;;4998239;28;21024;-61
2023/12/15 03:31:51;;;;;;;18.50;12.27;;;4.30;99.90;;;;;;4991824;28;20471;-61
2023/12/15 03:34:19;;;;;;;19.03;12.00;;;4.30;99.90;;;;;;4993923;28;20774;-61
2023/12/15 03:36:47;;;;;;;18.23;12.87;;;4.30;99.90;;;;;;4999252;28;20563;-61
2023/12/15 03:39:15;;;;;;;18.23;12.60;;;4.30;99.90;;;;;;5001427;28;20498;-61
2023/12/15 03:41:43;;;;;;;17.77;12.13;;;4.30;99.90;;;;;;5006955;28;20475;-61
2023/12/15 03:44:11;;;;;;;19.10;12.87;;;4.30;99.90;;;;;;5004149;28;20550;-61
2023/12/15 03:46:39;;;;;;;22.47;13.57;;;4.30;99.90;;;;;;5006642;28;20496;-61
2023/12/15 03:49:08;;;;;;;20.07;13.03;;;4.30;99.90;;;;;;5005987;28;21032;-61
2023/12/15 03:51:36;;;;;;;20.80;12.67;;;4.30;99.90;;;;;;5006801;28;20479;-62
2023/12/15 03:54:04;;;;;;;19.37;13.43;;;4.30;99.90;;;;;;5005576;28;23693;-61
2023/12/15 03:56:32;;;;;;;19.27;13.07;;;4.40;99.90;;;;;;5006341;28;20913;-60
2023/12/15 03:59:03;;;;;;;22.53;14.63;;;4.40;99.90;;;;;;5005996;28;20672;-63
2023/12/15 04:01:49;;;;;;;19.87;13.13;;;4.40;99.90;;;;;;5003471;28;20985;-60
2023/12/15 04:04:19;;;;;;;19.73;13.63;;;4.40;99.90;;;;;;5002819;28;20597;-61
2023/12/15 04:06:47;;;;;;;23.67;14.90;;;4.40;99.90;;;;;;5004397;28;20476;-60
2023/12/15 04:09:15;;;;;;;19.83;13.40;;;4.30;99.90;;;;;;5005937;28;20946;-61
2023/12/15 04:11:43;;;;;;;21.80;13.93;;;4.40;99.90;;;;;;4999804;28;20572;-60
2023/12/15 04:14:10;;;;;;;20.20;12.40;;;4.30;99.90;;;;;;4994327;28;21030;-61
2023/12/15 04:16:41;;;;;;;20.30;13.40;;;4.30;99.90;;;;;;4991447;28;20500;-60
2023/12/15 04:19:09;;;;;;;21.83;14.60;;;4.40;99.90;;;;;;4989039;28;20468;-60
2023/12/15 04:21:38;;;;;;;19.90;13.30;;;4.40;99.90;;;;;;4993901;28;20473;-60
2023/12/15 04:24:07;;;;;;;19.07;12.87;;;4.40;99.90;;;;;;4993733;28;20512;-61
2023/12/15 04:26:35;;;;;;;22.03;13.57;;;4.30;99.90;;;;;;4992425;28;20606;-60
2023/12/15 04:29:03;;;;;;;24.40;13.90;;;4.40;99.90;;;;;;5000929;28;20499;-61
2023/12/15 04:31:31;;;;;;;20.90;13.70;;;4.30;99.90;;;;;;4995921;28;20517;-61
2023/12/15 04:33:59;;;;;;;20.20;13.60;;;4.30;99.90;;;;;;4999926;28;21100;-61
2023/12/15 04:36:27;;;;;;;21.87;13.77;;;4.40;99.90;;;;;;4999717;28;20520;-61
2023/12/15 04:38:57;;;;;;;24.40;15.30;;;4.40;99.90;;;;;;4996431;28;21047;-62
2023/12/15 04:41:25;;;;;;;23.60;14.20;;;4.40;99.90;;;;;;4994354;28;20599;-60
2023/12/15 04:43:54;;;;;;;21.57;14.20;;;4.40;99.90;;;;;;4992797;28;20582;-60
2023/12/15 04:46:25;;;;;;;22.80;14.90;;;4.40;99.90;;;;;;4990653;28;20492;-63
2023/12/15 04:48:55;;;;;;;21.97;13.80;;;4.40;99.90;;;;;;4990773;28;20523;-60
2023/12/15 04:51:24;;;;;;;23.80;14.20;;;4.50;99.90;;;;;;4995445;28;20606;-60
2023/12/15 04:53:52;;;;;;;23.23;14.20;;;4.50;99.90;;;;;;4994430;28;20484;-60
2023/12/15 04:56:21;;;;;;;24.60;14.80;;;4.50;99.90;;;;;;4999503;28;20887;-61
2023/12/15 04:58:49;;;;;;;23.60;14.93;;;4.50;99.90;;;;;;4994956;28;20479;-60
2023/12/15 05:01:17;;;;;;;25.70;15.10;;;4.50;99.90;;;;;;4996081;28;20563;-60
2023/12/15 05:03:46;;;;;;;22.00;14.73;;;4.50;99.90;;;;;;4991979;28;20484;-60
2023/12/15 05:06:18;;;;;;;21.90;14.83;;;4.50;99.90;;;;;;4996071;28;21070;-60
2023/12/15 05:08:47;;;;;;;24.40;14.20;;;4.50;99.90;;;;;;4996678;28;20634;-61
2023/12/15 05:11:16;;;;;;;23.27;14.47;;;4.60;99.90;;;;;;4994764;28;20798;-59
2023/12/15 05:13:45;;;;;;;20.67;14.37;;;4.50;99.90;;;;;;4988070;28;20505;-61
2023/12/15 05:16:13;;;;;;;21.80;14.27;;;4.50;99.90;;;;;;4996143;28;21366;-61
2023/12/15 05:18:41;;;;;;;25.90;15.00;;;4.50;99.90;;;;;;4992876;28;20464;-61
2023/12/15 05:21:09;;;;;;;21.80;15.03;;;4.50;99.90;;;;;;4993332;28;21073;-59
2023/12/15 05:23:37;;;;;;;19.93;13.80;;;4.50;99.90;;;;;;4983748;28;20967;-60
2023/12/15 05:26:06;;;;;;;24.67;15.43;;;4.50;99.90;;;;;;4998434;28;20703;-60
2023/12/15 05:28:34;;;;;;;23.90;15.33;;;4.50;99.90;;;;;;4988723;28;20500;-59
2023/12/15 05:31:03;;;;;;;19.93;13.93;;;4.50;99.90;;;;;;4994611;28;20480;-61
2023/12/15 05:33:31;;;;;;;23.63;14.43;;;4.50;99.90;;;;;;4989672;28;20478;-60
2023/12/15 05:36:00;;;;;;;23.23;13.97;;;4.60;99.90;;;;;;4995019;28;23571;-61
2023/12/15 05:38:28;;;;;;;23.87;15.43;;;4.60;99.90;;;;;;4994709;28;21670;-61
2023/12/15 05:40:56;;;;;;;21.40;14.07;;;4.60;99.90;;;;;;4992545;28;20503;-60
2023/12/15 05:43:24;;;;;;;21.13;14.70;;;4.60;99.90;;;;;;4992659;28;21124;-61
2023/12/15 05:45:52;;;;;;;21.73;14.40;;;4.60;99.90;;;;;;4991103;28;20595;-61
2023/12/15 05:48:22;;;;;;;21.57;14.30;;;4.60;99.90;;;;;;5000012;28;20586;-61
2023/12/15 05:50:51;;;;;;;21.87;14.10;;;4.60;99.90;;;;;;4996341;28;20559;-60
2023/12/15 05:53:19;;;;;;;22.70;15.43;;;4.60;99.90;;;;;;4992538;28;20499;-61
2023/12/15 05:55:47;;;;;;;21.97;13.33;;;4.60;99.90;;;;;;5001332;28;20542;-61
2023/12/15 05:58:15;;;;;;;19.47;13.73;;;4.60;99.90;;;;;;4995093;28;20486;-60
2023/12/15 06:00:43;;;;;;;23.70;15.17;;;4.70;99.90;;;;;;4994593;28;20488;-62
2023/12/15 06:03:14;;;;;;;19.90;14.33;;;4.70;99.90;;;;;;4995319;28;20464;-61
2023/12/15 06:05:43;;;;;;;23.00;15.27;;;4.70;99.90;;;;;;4997498;28;20497;-61
2023/12/15 06:08:13;;;;;;;23.43;14.27;;;4.70;99.90;;;;;;4993045;28;20506;-61
2023/12/15 06:10:42;;;;;;;21.83;13.67;;;4.70;99.90;;;;;;4994491;28;20468;-61
2023/12/15 06:13:10;;;;;;;26.17;15.50;;;4.70;99.90;;;;;;4992831;28;20558;-61
2023/12/15 06:15:38;;;;;;;24.17;15.37;;;4.70;99.90;;;;;;4987281;28;21019;-61
2023/12/15 06:18:06;;;;;;;24.83;14.90;;;4.70;99.90;;;;;;4988023;28;20542;-61
2023/12/15 06:20:34;;;;;;;24.80;15.67;;;4.70;99.90;;;;;;4991390;28;20479;-61
2023/12/15 06:23:04;;;;;;;25.43;15.07;;;4.70;99.90;;;;;;4990867;28;20565;-60
2023/12/15 06:25:32;;;;;;;24.03;15.10;;;4.70;99.90;;;;;;4990286;28;20504;-61
2023/12/15 06:28:00;;;;;;;23.57;16.03;;;4.70;99.90;;;;;;4993777;28;20585;-61
2023/12/15 06:30:28;;;;;;;24.53;15.77;;;4.80;99.90;;;;;;5005843;28;20579;-61
2023/12/15 06:32:56;;;;;;;23.20;16.07;;;4.80;99.90;;;;;;5005727;28;20502;-61
2023/12/15 06:35:24;;;;;;;28.40;15.73;;;4.80;99.90;;;;;;5002900;28;20483;-61
2023/12/15 06:37:52;;;;;;;27.90;16.63;;;4.80;99.90;;;;;;4995972;28;20472;-61
2023/12/15 06:40:21;;;;;;;28.57;16.27;;;4.80;99.90;;;;;;4998452;28;20468;-61
2023/12/15 06:42:49;;;;;;;27.37;17.00;;;4.80;99.90;;;;;;4989837;28;20498;-61
2023/12/15 06:45:17;;;;;;;25.23;15.80;;;4.80;99.90;;;;;;5002680;28;20524;-61
2023/12/15 06:47:45;;;;;;;26.23;16.80;;;4.80;99.90;;;;;;5000774;28;20482;-60
2023/12/15 06:50:14;;;;;;;32.10;16.00;;;4.80;99.90;;;;;;4994069;28;20488;-61
2023/12/15 06:52:42;;;;;;;27.57;15.83;;;4.80;99.90;;;;;;4996582;28;20496;-61
2023/12/15 06:55:11;;;;;;;29.97;17.23;;;4.80;99.90;;;;;;5004012;28;20527;-61
2023/12/15 06:57:40;;;;;;;31.67;17.70;;;4.90;99.90;;;;;;5001470;28;20504;-60
2023/12/15 07:00:09;;;;;;;30.17;17.80;;;4.90;99.90;;;;;;5004672;28;20480;-60
2023/12/15 07:02:37;;;;;;;32.20;18.03;;;4.90;99.90;;;;;;4992890;28;20823;-60
2023/12/15 07:05:06;;;;;;;31.70;18.70;;;4.90;99.90;;;;;;4986193;28;20574;-61
2023/12/15 07:07:34;;;;;;;31.67;17.93;;;4.90;99.90;;;;;;4998510;28;20534;-61
2023/12/15 07:10:04;;;;;;;32.53;18.10;;;4.90;99.90;;;;;;4998027;28;20629;-60
2023/12/15 07:12:32;;;;;;;33.37;17.10;;;4.90;99.90;;;;;;4999298;28;20559;-61
2023/12/15 07:15:01;;;;;;;38.20;20.07;;;4.90;99.90;;;;;;4994327;28;20528;-61
2023/12/15 07:17:29;;;;;;;29.50;16.73;;;4.90;99.90;;;;;;4999445;28;20992;-59
2023/12/15 07:19:57;;;;;;;31.93;18.00;;;4.90;99.90;;;;;;5004224;28;20979;-60
2023/12/15 07:22:25;;;;;;;36.03;17.63;;;5.00;99.90;;;;;;4995565;28;20468;-61
2023/12/15 07:24:53;;;;;;;33.30;19.10;;;5.00;99.90;;;;;;5003192;28;20591;-61
2023/12/15 07:27:21;;;;;;;28.57;17.27;;;5.00;99.90;;;;;;4999216;28;20472;-61
2023/12/15 07:29:52;;;;;;;37.70;18.87;;;5.00;99.90;;;;;;4990856;28;20542;-61
2023/12/15 07:32:21;;;;;;;33.27;19.03;;;5.00;99.90;;;;;;5000640;28;21060;-60
2023/12/15 07:34:49;;;;;;;37.60;20.90;;;5.00;99.90;;;;;;4997690;28;20590;-61
2023/12/15 07:37:17;;;;;;;35.50;19.33;;;5.00;99.90;;;;;;4999173;28;20474;-61
2023/12/15 07:39:45;;;;;;;37.53;20.77;;;5.00;99.90;;;;;;4998056;28;20496;-59
2023/12/15 07:42:13;;;;;;;41.80;21.20;;;5.00;99.90;;;;;;5003136;28;20509;-60
2023/12/15 07:44:41;;;;;;;39.30;19.70;;;5.00;99.90;;;;;;4999764;28;20492;-61
2023/12/15 07:47:09;;;;;;;37.70;19.50;;;5.00;99.90;;;;;;4999310;28;22056;-60
2023/12/15 07:49:38;;;;;;;37.03;20.70;;;5.00;99.90;;;;;;5000850;28;20500;-61
2023/12/15 07:52:07;;;;;;;39.03;20.27;;;5.00;99.90;;;;;;5001526;28;20480;-61
2023/12/15 07:54:35;;;;;;;34.90;20.57;;;5.10;99.90;;;;;;4997296;28;20496;-59
2023/12/15 07:57:03;;;;;;;37.80;21.10;;;5.10;99.90;;;;;;4995913;28;20486;-60
2023/12/15 07:59:34;;;;;;;40.13;21.60;;;5.10;99.90;;;;;;4994700;28;20490;-61
2023/12/15 08:02:03;;;;;;;42.00;19.80;;;5.10;99.90;;;;;;4997368;28;20992;-61
2023/12/15 08:04:32;;;;;;;40.20;20.90;;;5.10;99.90;;;;;;4996668;28;20484;-60
2023/12/15 08:07:01;;;;;;;42.93;20.80;;;5.10;99.90;;;;;;5002878;28;20480;-60
2023/12/15 08:09:29;;;;;;;41.27;20.43;;;5.10;99.90;;;;;;4992634;28;20495;-59
2023/12/15 08:11:57;;;;;;;37.33;21.67;;;5.20;99.90;;;;;;4993305;28;20476;-60
2023/12/15 08:14:27;;;;;;;41.50;21.97;;;5.20;99.90;;;;;;4992058;28;20484;-61
2023/12/15 08:16:55;;;;;;;39.03;20.53;;;5.20;99.90;;;;;;4995570;28;20468;-60
2023/12/15 08:19:23;;;;;;;38.00;20.20;;;5.20;99.90;;;;;;4994666;28;20471;-60
2023/12/15 08:21:52;;;;;;;42.00;20.53;;;5.20;99.90;;;;;;4995390;28;21557;-61
2023/12/15 08:24:21;;;;;;;45.67;23.93;;;5.20;99.90;;;;;;4998128;28;20496;-60
2023/12/15 08:26:50;;;;;;;34.70;19.07;;;5.30;99.90;;;;;;5001400;28;20723;-60
2023/12/15 08:29:18;;;;;;;41.43;22.47;;;5.30;99.90;;;;;;4994533;28;20588;-61
2023/12/15 08:31:46;;;;;;;41.43;21.70;;;5.30;99.90;;;;;;4992557;28;20626;-61
2023/12/15 08:34:14;;;;;;;41.07;20.10;;;5.40;99.90;;;;;;4993417;28;20554;-60
2023/12/15 08:36:43;;;;;;;37.27;20.80;;;5.40;99.90;;;;;;4999742;28;20520;-61
2023/12/15 08:39:11;;;;;;;42.13;20.30;;;5.40;99.90;;;;;;4993809;28;20567;-61
2023/12/15 08:41:46;;;;;;;40.50;20.83;;;5.40;99.90;;;;;;4991392;28;20472;-60
2023/12/15 08:44:14;;;;;;;32.77;19.03;;;5.50;99.90;;;;;;4992094;28;20532;-61
2023/12/15 08:46:56;;;;;;;33.47;19.67;;;5.50;99.90;;;;;;5003481;28;20881;-60
2023/12/15 08:49:24;;;;;;;36.87;18.90;;;5.50;99.90;;;;;;4994595;28;20567;-61
2023/12/15 08:51:52;;;;;;;35.43;19.67;;;5.50;99.90;;;;;;4990674;28;20546;-61
2023/12/15 08:54:20;;;;;;;32.00;17.37;;;5.50;99.90;;;;;;5000033;28;20484;-60
2023/12/15 08:56:49;;;;;;;32.57;17.53;;;5.60;99.90;;;;;;4988943;28;20483;-61
2023/12/15 08:59:17;;;;;;;30.93;18.30;;;5.60;99.90;;;;;;4993635;28;20485;-61
2023/12/15 09:01:46;;;;;;;29.63;17.03;;;5.60;99.90;;;;;;4996659;28;20487;-60
2023/12/15 09:04:14;;;;;;;34.87;18.80;;;5.70;99.90;;;;;;4998749;28;20492;-60
2023/12/15 09:06:42;;;;;;;27.00;16.60;;;5.70;99.90;;;;;;4995098;28;20717;-61
2023/12/15 09:09:14;;;;;;;28.50;17.27;;;5.70;99.90;;;;;;4991749;28;21008;-60
2023/12/15 09:11:43;;;;;;;34.63;17.30;;;5.70;99.90;;;;;;4991724;28;20646;-61
2023/12/15 09:14:12;;;;;;;34.77;18.50;;;5.80;99.90;;;;;;4991962;28;20507;-60
2023/12/15 09:16:40;;;;;;;30.63;16.70;;;5.80;99.90;;;;;;5000720;28;20566;-61
2023/12/15 09:19:09;;;;;;;31.30;17.40;;;5.80;99.90;;;;;;4993930;28;20481;-61
2023/12/15 09:21:37;;;;;;;28.93;16.07;;;5.80;99.90;;;;;;4996237;28;20475;-61
2023/12/15 09:24:05;;;;;;;29.00;16.97;;;5.80;99.90;;;;;;4996883;28;20490;-61
2023/12/15 09:26:38;;;;;;;27.50;15.50;;;5.90;99.90;;;;;;4990870;28;20492;-61
2023/12/15 09:29:07;;;;;;;28.83;15.50;;;5.90;99.90;;;;;;4994117;28;20476;-61
2023/12/15 09:31:36;;;;;;;28.10;15.07;;;5.90;99.90;;;;;;4991204;28;20870;-61
2023/12/15 09:34:05;;;;;;;28.47;16.17;;;5.90;99.90;;;;;;4989918;28;20527;-61
2023/12/15 09:36:34;;;;;;;24.53;14.63;;;6.00;99.90;;;;;;4995559;28;20507;-61
2023/12/15 09:39:03;;;;;;;26.47;15.20;;;6.00;99.90;;;;;;5000852;28;20472;-61
2023/12/15 09:41:33;;;;;;;28.17;16.30;;;6.00;99.90;;;;;;5004595;28;20555;-61
2023/12/15 09:44:01;;;;;;;33.87;17.80;;;6.00;99.90;;;;;;5002171;28;20479;-60
2023/12/15 09:46:30;;;;;;;30.73;17.10;;;6.00;99.90;;;;;;5002899;28;20492;-60
2023/12/15 09:49:01;;;;;;;27.30;17.17;;;6.10;99.90;;;;;;5003509;28;20464;-61
2023/12/15 09:51:33;;;;;;;31.80;16.73;;;6.10;99.90;;;;;;5002625;28;20574;-61
2023/12/15 09:54:01;;;;;;;29.60;16.73;;;6.10;99.90;;;;;;5003678;28;20567;-61
2023/12/15 09:56:29;;;;;;;29.33;16.97;;;6.20;99.90;;;;;;5002803;28;21276;-61
2023/12/15 09:58:57;;;;;;;29.03;16.57;;;6.20;99.90;;;;;;5003318;28;20495;-60
2023/12/15 10:01:25;;;;;;;34.60;18.03;;;6.20;99.90;;;;;;5004980;28;20460;-61
2023/12/15 10:03:54;;;;;;;33.23;17.93;;;6.30;99.90;;;;;;5004031;28;20488;-60
2023/12/15 10:06:25;;;;;;;37.67;16.80;;;6.30;99.90;;;;;;5001912;28;20517;-61
2023/12/15 10:08:53;;;;;;;28.40;17.37;;;6.40;99.90;;;;;;4999608;28;20475;-60
2023/12/15 10:11:33;;;;;;;33.10;17.17;;;6.40;99.90;;;;;;4994384;28;20502;-60
2023/12/15 10:14:07;;;;;;;35.37;16.20;;;6.50;99.90;;;;;;4997086;28;20551;-60
2023/12/15 10:16:36;;;;;;;32.90;17.50;;;6.50;99.90;;;;;;4996932;28;20492;-61
2023/12/15 10:19:05;;;;;;;33.43;17.23;;;6.50;99.90;;;;;;4997247;28;20564;-61
2023/12/15 10:21:36;;;;;;;39.60;18.07;;;6.50;99.90;;;;;;4997398;28;20563;-60
2023/12/15 10:24:19;;;;;;;33.53;16.80;;;6.50;99.90;;;;;;4993734;28;20504;-60
2023/12/15 10:26:47;;;;;;;34.30;16.00;;;6.60;99.90;;;;;;4989809;28;20464;-60
2023/12/15 10:29:15;;;;;;;33.97;17.50;;;6.60;99.90;;;;;;4987174;28;20598;-61
2023/12/15 10:31:43;;;;;;;30.60;17.90;;;6.60;99.90;;;;;;4992823;28;22832;-61
2023/12/15 10:34:11;;;;;;;31.63;17.80;;;6.60;99.90;;;;;;4997402;28;20488;-61
2023/12/15 10:36:44;;;;;;;33.93;16.77;;;6.70;99.90;;;;;;4998735;28;20535;-60
2023/12/15 10:39:13;;;;;;;35.10;17.67;;;6.70;99.90;;;;;;5005823;28;20472;-61
2023/12/15 10:41:42;;;;;;;33.80;17.10;;;6.80;99.90;;;;;;5008477;28;20554;-61
2023/12/15 10:44:12;;;;;;;34.10;16.43;;;6.80;99.90;;;;;;5006219;28;20495;-60
2023/12/15 10:46:42;;;;;;;26.70;16.43;;;6.80;99.90;;;;;;5001383;28;21012;-60
2023/12/15 10:49:11;;;;;;;30.47;17.37;;;6.90;99.90;;;;;;5006820;28;20495;-61
2023/12/15 10:51:42;;;;;;;31.13;16.30;;;7.00;99.90;;;;;;5004461;28;20872;-60
2023/12/15 10:54:11;;;;;;;33.90;17.00;;;7.00;99.90;;;;;;5002086;28;21578;-61
2023/12/15 10:56:39;;;;;;;30.47;17.10;;;7.00;99.90;;;;;;5000355;28;20841;-61
2023/12/15 10:59:09;;;;;;;28.73;16.13;;;7.10;99.90;;;;;;4993968;28;20523;-59
2023/12/15 11:01:40;;;;;;;31.43;14.93;;;7.10;99.90;;;;;;4999112;28;21059;-61
2023/12/15 11:04:19;;;;;;;32.20;15.67;;;7.20;99.90;;;;;;4999466;28;20708;-60
2023/12/15 11:06:49;;;;;;;27.63;16.57;;;7.20;99.90;;;;;;5006816;28;20801;-61
2023/12/15 11:09:29;;;;;;;27.40;15.70;;;7.20;99.90;;;;;;4999121;28;20464;-62
2023/12/15 11:12:23;;;;;;;25.50;14.77;;;7.30;99.90;;;;;;5001826;28;20578;-61
2023/12/15 11:14:57;;;;;;;31.20;15.60;;;7.30;99.90;;;;;;5000092;28;21005;-61
2023/12/15 11:17:26;;;;;;;26.77;14.60;;;7.30;99.90;;;;;;5001714;28;20972;-60
2023/12/15 11:20:02;;;;;;;25.67;14.90;;;7.30;99.90;;;;;;5002963;28;20473;-60
2023/12/15 11:22:41;;;;;;;25.83;14.27;;;7.30;99.90;;;;;;5004302;28;20537;-59
2023/12/15 11:25:18;;;;;;;30.03;14.67;;;7.40;99.90;;;;;;5004862;28;20488;-61
2023/12/15 11:28:07;;;;;;;29.60;13.53;;;7.40;99.90;;;;;;5007051;28;20478;-61
2023/12/15 11:30:37;;;;;;;25.13;14.37;;;7.40;99.90;;;;;;5007091;28;20859;-60
2023/12/15 11:33:42;;;;;;;24.83;13.73;;;7.40;99.90;;;;;;5005412;28;20470;-61
2023/12/15 11:36:13;;;;;;;22.90;13.63;;;7.40;99.90;;;;;;4999678;28;20495;-60
2023/12/15 11:38:48;;;;;;;21.47;13.87;;;7.40;99.90;;;;;;4994246;28;20472;-59
2023/12/15 11:41:22;;;;;;;22.27;13.80;;;7.50;99.90;;;;;;4995484;28;20476;-60
2023/12/15 11:43:51;;;;;;;21.17;13.27;;;7.50;99.90;;;;;;4995754;28;20573;-61
2023/12/15 11:46:21;;;;;;;24.23;14.20;;;7.60;99.90;;;;;;5001265;28;20546;-60
2023/12/15 11:48:49;;;;;;;27.33;13.53;;;7.60;99.90;;;;;;5002003;28;20908;-60
2023/12/15 11:51:20;;;;;;;25.73;13.07;;;7.60;99.90;;;;;;5000108;28;20575;-61
2023/12/15 11:53:50;;;;;;;29.07;12.90;;;7.70;99.90;;;;;;4995189;28;20500;-60
2023/12/15 11:56:18;;;;;;;25.90;13.37;;;7.70;99.90;;;;;;4994218;28;20583;-61
2023/12/15 11:58:47;;;;;;;24.40;13.50;;;7.70;99.90;;;;;;4997573;28;20972;-61
2023/12/15 12:01:15;;;;;;;21.17;13.43;;;7.70;99.90;;;;;;4999723;28;20548;-60
2023/12/15 12:03:44;;;;;;;25.73;13.57;;;7.70;99.90;;;;;;4997140;28;20584;-59
2023/12/15 12:06:20;;;;;;;24.17;13.63;;;7.70;99.90;;;;;;4998692;28;20839;-61
2023/12/15 12:08:50;;;;;;;22.80;13.03;;;7.70;99.90;;;;;;4999190;28;20478;-61
2023/12/15 12:11:18;;;;;;;23.73;12.33;;;7.70;99.90;;;;;;4992498;28;20528;-63
2023/12/15 12:13:48;;;;;;;23.97;13.40;;;7.70;99.90;;;;;;4996833;28;20487;-60
2023/12/15 12:16:17;;;;;;;25.00;13.27;;;7.80;99.90;;;;;;4996828;28;20524;-61
2023/12/15 12:18:46;;;;;;;28.63;13.43;;;7.80;99.90;;;;;;4997404;28;20551;-60
2023/12/15 12:21:16;;;;;;;22.80;12.87;;;7.80;99.90;;;;;;4998628;28;20476;-60
2023/12/15 12:23:44;;;;;;;25.83;13.10;;;7.90;99.90;;;;;;4999462;28;20484;-61
2023/12/15 12:26:16;;;;;;;25.63;13.73;;;7.90;99.90;;;;;;4995775;28;20859;-60
2023/12/15 12:28:48;;;;;;;26.47;13.97;;;8.00;99.90;;;;;;4997556;28;20479;-61
2023/12/15 12:31:18;;;;;;;27.73;13.33;;;8.00;99.90;;;;;;4989012;28;20468;-60
2023/12/15 12:33:46;;;;;;;26.20;12.50;;;8.00;99.90;;;;;;4996538;28;20495;-61
2023/12/15 12:36:14;;;;;;;24.27;13.60;;;8.10;99.90;;;;;;4989996;28;20492;-61
2023/12/15 12:38:44;;;;;;;21.43;12.70;;;8.00;99.90;;;;;;4996525;28;20476;-60
2023/12/15 12:41:12;;;;;;;25.27;13.27;;;8.00;99.90;;;;;;4988132;28;20482;-61
2023/12/15 12:43:42;;;;;;;27.67;13.37;;;8.00;99.90;;;;;;4997735;28;20583;-61
2023/12/15 12:46:11;;;;;;;24.30;12.33;;;8.10;99.90;;;;;;4997357;28;20865;-59